Time;durP1;ratioP1;P1;durP2;ratioP2;P2;SDS_P1;SDS_P2;PMS_P1;PMS_P2;Temp;Humidity;BMP_temperature;BMP_pressure;BME280_temperature;BME280_humidity;BME280_pressure;Samples;Min_cycle;Max_cycle;Signal;HPM_P1;HPM_P2
2021/08/27 00:00:55;;;;;;;23.75;21.48;;;19.90;83.80;;;;;;5058387;28;20432;-33
2021/08/27 00:03:20;;;;;;;28.23;25.95;;;19.90;83.70;;;;;;5058226;28;20418;-32
2021/08/27 00:05:46;;;;;;;24.23;22.00;;;19.80;83.50;;;;;;5058447;28;20087;-33
2021/08/27 00:08:12;;;;;;;33.47;31.00;;;19.90;83.70;;;;;;5057886;28;20033;-35
2021/08/27 00:10:38;;;;;;;29.30;26.73;;;19.80;83.80;;;;;;5057592;28;20029;-32
2021/08/27 00:13:03;;;;;;;31.52;29.15;;;19.80;84.00;;;;;;5057785;28;20033;-33
2021/08/27 00:15:29;;;;;;;35.03;32.60;;;19.90;83.90;;;;;;5057360;28;20029;-33
2021/08/27 00:17:55;;;;;;;35.38;32.90;;;19.90;83.90;;;;;;5058009;28;20163;-33
2021/08/27 00:20:21;;;;;;;25.65;23.40;;;19.80;83.90;;;;;;5058040;28;20067;-33
2021/08/27 00:22:46;;;;;;;33.33;30.77;;;19.80;84.00;;;;;;5057907;28;20115;-33
2021/08/27 00:25:12;;;;;;;25.95;23.83;;;19.80;84.10;;;;;;5057917;28;20021;-34
2021/08/27 00:27:38;;;;;;;16.95;15.20;;;19.80;84.00;;;;;;5057814;28;20052;-32
2021/08/27 00:30:04;;;;;;;31.08;28.85;;;19.80;83.60;;;;;;5057682;28;20028;-35
2021/08/27 00:32:30;;;;;;;27.83;25.73;;;19.80;83.40;;;;;;5057385;28;20029;-34
2021/08/27 00:34:55;;;;;;;22.85;21.13;;;19.70;83.20;;;;;;5057829;28;20309;-32
2021/08/27 00:37:21;;;;;;;24.88;23.05;;;19.70;83.20;;;;;;5057444;28;20415;-32
2021/08/27 00:39:47;;;;;;;25.67;23.70;;;19.70;83.00;;;;;;5057435;28;20033;-32
2021/08/27 00:42:13;;;;;;;30.85;28.63;;;19.70;83.20;;;;;;5057356;28;20048;-32
2021/08/27 00:44:38;;;;;;;24.80;22.60;;;19.60;83.00;;;;;;5057557;28;20029;-33
2021/08/27 00:47:04;;;;;;;23.40;21.52;;;19.60;83.30;;;;;;5057162;28;20313;-34
2021/08/27 00:49:31;;;;;;;28.45;26.33;;;19.60;83.30;;;;;;5057230;28;20091;-35
2021/08/27 00:51:57;;;;;;;28.08;26.08;;;19.60;83.10;;;;;;5057165;28;20031;-32
2021/08/27 00:54:23;;;;;;;24.15;22.15;;;19.50;83.10;;;;;;5057104;28;20429;-32
2021/08/27 00:56:50;;;;;;;34.22;31.88;;;19.50;83.20;;;;;;5057386;28;20029;-32
2021/08/27 00:59:16;;;;;;;31.45;29.25;;;19.50;83.20;;;;;;5057110;28;20025;-32
2021/08/27 01:01:42;;;;;;;26.30;24.30;;;19.50;83.10;;;;;;5056917;28;20031;-32
2021/08/27 01:04:08;;;;;;;16.45;15.02;;;19.50;83.30;;;;;;5057043;28;20029;-34
2021/08/27 01:06:42;;;;;;;27.38;25.25;;;19.50;83.20;;;;;;5056894;28;20112;-32
2021/08/27 01:09:50;;;;;;;23.55;21.60;;;19.50;83.50;;;;;;5056821;28;20052;-32
2021/08/27 01:12:27;;;;;;;31.05;28.80;;;19.50;83.20;;;;;;5056705;28;20098;-34
2021/08/27 01:14:59;;;;;;;30.25;27.92;;;19.50;83.40;;;;;;5056951;28;20041;-34
2021/08/27 01:17:29;;;;;;;27.45;25.30;;;19.50;83.30;;;;;;5056204;28;20124;-33
2021/08/27 01:20:32;;;;;;;34.65;32.05;;;19.40;83.20;;;;;;5056801;28;20029;-32
2021/08/27 01:23:20;;;;;;;25.77;23.67;;;19.40;83.20;;;;;;5056752;28;20033;-33
2021/08/27 01:25:52;;;;;;;23.48;21.15;;;19.40;83.50;;;;;;5055925;28;20044;-32
2021/08/27 01:28:21;;;;;;;21.92;19.55;;;19.40;84.30;;;;;;5056688;28;20321;-35
2021/08/27 01:31:17;;;;;;;20.45;18.58;;;19.40;84.00;;;;;;5056550;28;20047;-34
2021/08/27 01:34:20;;;;;;;29.13;26.52;;;19.40;83.80;;;;;;5056333;28;20028;-35
2021/08/27 01:36:47;;;;;;;21.55;17.67;;;19.40;83.60;;;;;;5056518;28;20029;-32
2021/08/27 01:39:15;;;;;;;26.70;24.35;;;19.40;83.90;;;;;;5056123;28;20025;-34
2021/08/27 01:41:44;;;;;;;30.25;27.80;;;19.40;83.90;;;;;;5056249;28;20029;-34
2021/08/27 01:44:12;;;;;;;31.33;28.92;;;19.40;84.00;;;;;;5056092;28;20021;-32
2021/08/27 01:46:42;;;;;;;31.83;29.50;;;19.40;83.90;;;;;;5056215;28;20035;-35
2021/08/27 01:49:10;;;;;;;30.93;28.53;;;19.40;84.00;;;;;;5055961;28;20044;-35
2021/08/27 01:51:37;;;;;;;22.20;20.15;;;19.40;84.00;;;;;;5056235;28;20492;-34
2021/08/27 01:54:04;;;;;;;20.30;18.65;;;19.40;84.60;;;;;;5056290;28;20158;-32
2021/08/27 01:56:30;;;;;;;20.73;18.85;;;19.40;83.90;;;;;;5056071;28;20486;-34
2021/08/27 01:59:00;;;;;;;29.10;26.85;;;19.40;83.90;;;;;;5055914;28;20044;-33
2021/08/27 02:01:28;;;;;;;26.38;23.98;;;19.40;84.10;;;;;;5055876;28;20081;-33
2021/08/27 02:03:55;;;;;;;25.25;23.25;;;19.40;84.10;;;;;;5056084;28;20480;-33
2021/08/27 02:06:23;;;;;;;18.33;16.85;;;19.30;84.10;;;;;;5055784;28;20033;-34
2021/08/27 02:08:51;;;;;;;24.95;23.13;;;19.30;84.00;;;;;;5055962;28;20039;-32
2021/08/27 02:11:19;;;;;;;18.05;16.55;;;19.30;84.00;;;;;;5055648;28;20032;-34
2021/08/27 02:13:46;;;;;;;29.10;26.90;;;19.30;84.20;;;;;;5055701;28;20116;-35
2021/08/27 02:16:14;;;;;;;30.42;28.10;;;19.30;84.30;;;;;;5055447;28;20053;-32
2021/08/27 02:18:40;;;;;;;27.52;25.35;;;19.30;84.40;;;;;;5055997;28;20020;-33
2021/08/27 02:21:08;;;;;;;25.23;23.15;;;19.30;85.00;;;;;;5055630;28;20044;-34
2021/08/27 02:23:35;;;;;;;23.88;21.58;;;19.30;84.40;;;;;;5055758;28;20104;-34
2021/08/27 02:26:02;;;;;;;24.50;22.35;;;19.30;84.60;;;;;;5055969;28;20037;-35
2021/08/27 02:28:28;;;;;;;30.17;27.67;;;19.20;84.90;;;;;;5055518;28;20040;-32
2021/08/27 02:30:56;;;;;;;21.08;19.25;;;19.30;85.20;;;;;;5055856;28;20036;-32
2021/08/27 02:33:25;;;;;;;21.10;18.95;;;19.30;84.90;;;;;;5055725;28;20037;-33
2021/08/27 02:35:51;;;;;;;26.50;24.20;;;19.30;84.70;;;;;;5055946;28;20040;-34
2021/08/27 02:38:20;;;;;;;28.50;26.10;;;19.30;84.70;;;;;;5058240;28;20417;-33
2021/08/27 02:40:46;;;;;;;19.33;14.65;;;19.30;84.80;;;;;;5059913;28;20118;-34
2021/08/27 02:43:12;;;;;;;26.30;23.88;;;19.30;84.70;;;;;;5059495;28;20021;-32
2021/08/27 02:45:37;;;;;;;29.48;26.88;;;19.20;84.80;;;;;;5059735;28;20029;-32
2021/08/27 02:48:04;;;;;;;28.60;25.83;;;19.20;84.80;;;;;;5059800;28;20037;-34
2021/08/27 02:50:35;;;;;;;24.52;21.60;;;19.20;84.90;;;;;;5059757;28;20083;-33
2021/08/27 02:53:07;;;;;;;;;;;19.20;84.90;;;;;;5059979;28;20032;-33
2021/08/27 02:55:38;;;;;;;27.92;20.80;;;19.20;84.40;;;;;;5059618;28;19975;-35
2021/08/27 02:58:26;;;;;;;30.42;21.92;;;19.20;84.80;;;;;;5059648;28;20469;-34
2021/08/27 03:01:00;;;;;;;31.95;20.13;;;19.10;84.50;;;;;;5059503;28;20029;-33
2021/08/27 03:03:32;;;;;;;37.22;31.60;;;19.20;84.90;;;;;;5059463;28;20057;-34
2021/08/27 03:06:13;;;;;;;29.45;24.58;;;19.10;85.00;;;;;;5059504;28;20022;-34
2021/08/27 03:08:45;;;;;;;38.92;32.47;;;19.10;85.10;;;;;;5059442;28;20158;-34
2021/08/27 03:11:16;;;;;;;33.33;29.48;;;19.10;85.10;;;;;;5058882;28;20125;-34
2021/08/27 03:13:48;;;;;;;36.00;25.50;;;19.10;85.30;;;;;;5058950;28;20029;-34
2021/08/27 03:16:17;;;;;;;39.67;27.83;;;19.10;85.10;;;;;;5058657;28;20128;-34
2021/08/27 03:18:52;;;;;;;34.47;27.67;;;19.10;85.00;;;;;;5058861;28;20032;-35
2021/08/27 03:21:36;;;;;;;35.45;26.67;;;19.10;85.20;;;;;;5058991;28;20036;-33
2021/08/27 03:24:15;;;;;;;36.88;22.60;;;19.10;85.50;;;;;;5058941;28;20130;-35
2021/08/27 03:26:47;;;;;;;38.97;24.70;;;19.00;85.70;;;;;;5059124;28;20060;-32
2021/08/27 03:29:16;;;;;;;35.08;23.17;;;19.00;85.60;;;;;;5058371;28;20036;-34
2021/08/27 03:31:43;;;;;;;37.65;28.42;;;19.10;85.70;;;;;;5058571;28;20029;-32
2021/08/27 03:34:10;;;;;;;33.47;28.25;;;19.10;85.50;;;;;;5058423;28;20102;-34
2021/08/27 03:36:36;;;;;;;40.55;28.75;;;19.10;85.50;;;;;;5058745;28;20409;-33
2021/08/27 03:39:03;;;;;;;33.53;25.65;;;19.00;85.50;;;;;;5058686;28;20029;-33
2021/08/27 03:41:32;;;;;;;36.58;25.50;;;19.00;85.10;;;;;;5058349;28;20029;-33
2021/08/27 03:44:00;;;;;;;38.83;28.05;;;19.00;85.30;;;;;;5058431;28;20021;-32
2021/08/27 03:46:27;;;;;;;43.20;29.80;;;19.00;85.30;;;;;;5057212;28;20037;-33
2021/08/27 03:48:54;;;;;;;42.42;25.73;;;19.00;85.20;;;;;;5057504;28;20048;-33
2021/08/27 03:51:20;;;;;;;36.38;29.48;;;19.00;85.10;;;;;;5058079;28;20052;-32
2021/08/27 03:53:46;;;;;;;39.05;28.00;;;19.00;85.30;;;;;;5058095;28;20032;-33
2021/08/27 03:56:13;;;;;;;36.60;27.92;;;19.00;85.60;;;;;;5058047;28;20083;-32
2021/08/27 03:58:41;;;;;;;38.53;26.73;;;19.00;85.50;;;;;;5057942;28;20075;-33
2021/08/27 04:01:08;;;;;;;35.10;23.33;;;19.00;85.40;;;;;;5058003;28;20041;-35
2021/08/27 04:03:36;;;;;;;33.03;24.77;;;18.90;85.30;;;;;;5058141;28;20078;-34
2021/08/27 04:06:07;;;;;;;30.20;25.90;;;19.00;85.40;;;;;;5058315;28;20313;-32
2021/08/27 04:08:39;;;;;;;32.58;25.15;;;18.90;85.60;;;;;;5058329;28;20039;-34
2021/08/27 04:11:07;;;;;;;34.47;22.83;;;18.90;85.80;;;;;;5057629;28;20374;-34
2021/08/27 04:13:33;;;;;;;30.67;22.40;;;18.90;85.80;;;;;;5057472;28;20231;-34
2021/08/27 04:15:59;;;;;;;37.58;29.35;;;18.90;85.70;;;;;;5057397;28;20049;-35
2021/08/27 04:18:24;;;;;;;28.63;22.30;;;19.00;85.80;;;;;;5057633;28;20032;-35
2021/08/27 04:20:50;;;;;;;32.92;25.08;;;19.00;86.10;;;;;;5057869;28;20025;-33
2021/08/27 04:23:16;;;;;;;32.58;25.60;;;19.10;85.60;;;;;;5057588;28;20025;-35
2021/08/27 04:25:42;;;;;;;35.17;26.85;;;19.00;85.50;;;;;;5057508;28;20333;-34
2021/08/27 04:28:07;;;;;;;30.00;23.45;;;19.00;85.60;;;;;;5057190;28;20033;-32
2021/08/27 04:30:34;;;;;;;34.50;25.73;;;19.10;85.40;;;;;;5057543;28;20036;-35
2021/08/27 04:33:00;;;;;;;33.50;25.23;;;19.10;85.30;;;;;;5057282;28;20333;-35
2021/08/27 04:35:26;;;;;;;36.47;27.02;;;19.10;85.00;;;;;;5057403;28;20032;-35
2021/08/27 04:37:53;;;;;;;35.17;26.80;;;19.10;85.30;;;;;;5057110;28;20033;-35
2021/08/27 04:40:19;;;;;;;32.30;25.42;;;19.10;85.30;;;;;;5057034;28;20040;-34
2021/08/27 04:42:45;;;;;;;40.00;26.05;;;19.10;84.90;;;;;;5057021;28;20039;-32
2021/08/27 04:45:11;;;;;;;35.72;25.50;;;19.10;84.70;;;;;;5057241;28;20025;-35
2021/08/27 04:47:37;;;;;;;35.60;24.02;;;19.10;84.70;;;;;;5056284;28;20033;-35
2021/08/27 04:50:03;;;;;;;34.38;25.15;;;19.10;84.70;;;;;;5056689;28;20033;-33
2021/08/27 04:52:29;;;;;;;37.22;28.17;;;19.10;85.00;;;;;;5057322;28;20037;-32
2021/08/27 04:54:55;;;;;;;37.30;26.88;;;19.10;85.10;;;;;;5056972;28;20040;-32
2021/08/27 04:57:21;;;;;;;31.63;25.13;;;19.10;85.10;;;;;;5056095;28;20044;-33
2021/08/27 04:59:47;;;;;;;37.13;25.73;;;19.10;85.00;;;;;;5056589;28;20033;-35
2021/08/27 05:02:13;;;;;;;37.97;27.75;;;19.10;85.00;;;;;;5056546;28;20124;-33
2021/08/27 05:04:39;;;;;;;40.92;25.92;;;19.10;84.60;;;;;;5056494;28;20025;-33
2021/08/27 05:07:05;;;;;;;45.25;29.10;;;19.10;84.80;;;;;;5056679;28;20473;-35
2021/08/27 05:09:31;;;;;;;40.28;27.73;;;19.10;84.60;;;;;;5056399;28;20037;-35
2021/08/27 05:11:56;;;;;;;41.00;28.17;;;19.10;84.60;;;;;;5056071;28;20029;-33
2021/08/27 05:14:22;;;;;;;41.58;27.80;;;19.10;84.80;;;;;;5056493;28;20560;-35
2021/08/27 05:16:48;;;;;;;43.03;26.63;;;19.10;84.70;;;;;;5055858;28;20053;-35
2021/08/27 05:19:14;;;;;;;43.95;30.48;;;19.10;84.70;;;;;;5056394;28;20082;-32
2021/08/27 05:21:39;;;;;;;40.20;25.25;;;19.10;84.60;;;;;;5056417;28;20033;-35
2021/08/27 05:24:05;;;;;;;85.95;58.92;;;19.10;84.60;;;;;;5056122;28;20029;-33
2021/08/27 05:26:31;;;;;;;45.75;29.10;;;19.10;84.70;;;;;;5056525;28;20035;-35
2021/08/27 05:28:58;;;;;;;39.92;26.15;;;19.10;84.70;;;;;;5055936;28;20414;-35
2021/08/27 05:31:24;;;;;;;37.75;25.75;;;19.10;84.70;;;;;;5055962;28;20033;-34
2021/08/27 05:33:50;;;;;;;39.63;25.77;;;19.10;84.80;;;;;;5055853;28;20021;-33
2021/08/27 05:36:15;;;;;;;49.92;30.17;;;19.10;84.60;;;;;;5056080;28;20417;-33
2021/08/27 05:38:41;;;;;;;47.35;28.10;;;19.10;84.60;;;;;;5056124;28;20021;-33
2021/08/27 05:41:07;;;;;;;51.35;31.88;;;19.10;84.80;;;;;;5055683;28;20062;-35
2021/08/27 05:43:32;;;;;;;53.78;30.90;;;19.10;85.00;;;;;;5055807;28;20383;-35
2021/08/27 05:45:58;;;;;;;47.67;28.60;;;19.10;84.80;;;;;;5056146;28;20041;-35
2021/08/27 05:48:24;;;;;;;46.30;29.48;;;19.10;84.30;;;;;;5055689;28;20082;-35
2021/08/27 05:50:50;;;;;;;53.78;32.42;;;19.10;84.40;;;;;;5055936;28;20415;-33
2021/08/27 05:53:15;;;;;;;44.03;27.27;;;19.10;84.50;;;;;;5055790;28;20415;-35
2021/08/27 05:55:41;;;;;;;48.03;28.23;;;19.20;84.50;;;;;;5055608;28;20162;-35
2021/08/27 05:58:07;;;;;;;46.58;28.48;;;19.20;84.30;;;;;;5055757;28;20033;-33
2021/08/27 06:00:32;;;;;;;45.88;29.08;;;19.20;84.80;;;;;;5055675;28;20052;-34
2021/08/27 06:02:58;;;;;;;46.60;30.48;;;19.20;84.70;;;;;;5055611;28;20475;-33
2021/08/27 06:05:24;;;;;;;41.45;27.50;;;19.30;84.60;;;;;;5055657;28;20032;-33
2021/08/27 06:07:49;;;;;;;48.47;30.40;;;19.30;84.50;;;;;;5055192;28;20436;-33
2021/08/27 06:10:15;;;;;;;47.00;29.65;;;19.30;84.40;;;;;;5055572;28;20033;-35
2021/08/27 06:12:42;;;;;;;57.28;30.35;;;19.30;83.90;;;;;;5054884;28;20087;-35
2021/08/27 06:15:09;;;;;;;50.28;29.75;;;19.30;83.30;;;;;;5055592;28;20032;-35
2021/08/27 06:17:35;;;;;;;51.65;29.33;;;19.30;83.60;;;;;;5054932;28;20048;-35
2021/08/27 06:20:00;;;;;;;56.78;33.67;;;19.30;83.70;;;;;;5055676;28;20029;-32
2021/08/27 06:22:26;;;;;;;55.53;32.53;;;19.40;83.40;;;;;;5055481;28;20033;-32
2021/08/27 06:24:52;;;;;;;61.53;34.90;;;19.30;83.00;;;;;;5055262;28;20032;-33
2021/08/27 06:27:17;;;;;;;58.35;36.90;;;19.30;82.80;;;;;;5054567;28;20134;-33
2021/08/27 06:29:43;;;;;;;52.53;31.58;;;19.30;82.60;;;;;;5055197;28;20111;-32
2021/08/27 06:32:10;;;;;;;62.17;36.90;;;19.30;82.60;;;;;;5054612;28;20043;-33
2021/08/27 06:34:36;;;;;;;59.58;33.72;;;19.30;82.70;;;;;;5054989;28;20242;-34
2021/08/27 06:37:02;;;;;;;63.20;36.35;;;19.30;83.00;;;;;;5055064;28;20052;-32
2021/08/27 06:39:28;;;;;;;54.95;33.85;;;19.20;82.90;;;;;;5055114;28;20032;-33
2021/08/27 06:41:54;;;;;;;58.08;34.05;;;19.20;82.90;;;;;;5055546;28;20344;-34
2021/08/27 06:44:21;;;;;;;48.05;30.17;;;19.20;83.20;;;;;;5055252;28;20032;-33
2021/08/27 06:46:46;;;;;;;59.20;35.58;;;19.30;83.40;;;;;;5055428;28;20325;-34
2021/08/27 06:49:12;;;;;;;57.67;35.15;;;19.30;83.70;;;;;;5055003;28;20029;-34
2021/08/27 06:51:39;;;;;;;59.85;35.70;;;19.30;83.30;;;;;;5055242;28;20041;-35
2021/08/27 06:54:05;;;;;;;53.85;35.13;;;19.30;83.20;;;;;;5054959;28;20163;-32
2021/08/27 06:56:31;;;;;;;52.53;34.65;;;19.30;82.90;;;;;;5054924;28;20108;-35
2021/08/27 06:58:57;;;;;;;60.95;35.28;;;19.30;82.90;;;;;;5055140;28;20025;-32
2021/08/27 07:01:23;;;;;;;55.70;34.60;;;19.30;82.70;;;;;;5055047;28;20111;-35
2021/08/27 07:03:49;;;;;;;55.00;33.65;;;19.30;82.70;;;;;;5054655;28;20158;-32
2021/08/27 07:06:15;;;;;;;54.42;35.35;;;19.30;82.80;;;;;;5055003;28;20033;-34
2021/08/27 07:08:41;;;;;;;50.30;33.22;;;19.30;82.80;;;;;;5054596;28;20380;-35
2021/08/27 07:11:07;;;;;;;52.67;34.30;;;19.40;82.80;;;;;;5054848;28;20168;-35
2021/08/27 07:13:33;;;;;;;55.08;33.20;;;19.30;82.80;;;;;;5054624;28;20460;-34
2021/08/27 07:15:59;;;;;;;48.65;29.05;;;19.30;82.60;;;;;;5054928;28;20301;-32
2021/08/27 07:18:26;;;;;;;58.92;36.38;;;19.30;82.60;;;;;;5054825;28;20041;-32
2021/08/27 07:20:53;;;;;;;55.42;35.45;;;19.30;82.80;;;;;;5055132;28;20360;-32
2021/08/27 07:23:19;;;;;;;54.83;32.78;;;19.30;83.10;;;;;;5054542;28;20025;-35
2021/08/27 07:25:45;;;;;;;54.72;34.13;;;19.30;82.80;;;;;;5058198;28;20029;-35
2021/08/27 07:28:11;;;;;;;57.65;37.58;;;19.30;83.00;;;;;;5058372;28;20036;-32
2021/08/27 07:30:37;;;;;;;58.53;36.03;;;19.30;83.10;;;;;;5058426;28;20029;-35
2021/08/27 07:33:03;;;;;;;51.33;32.78;;;19.40;82.90;;;;;;5058032;28;20057;-33
2021/08/27 07:35:29;;;;;;;56.30;36.10;;;19.30;83.30;;;;;;5058415;28;20028;-32
2021/08/27 07:37:54;;;;;;;56.63;33.42;;;19.30;83.30;;;;;;5058324;28;20423;-32
2021/08/27 07:40:20;;;;;;;54.58;34.00;;;19.40;82.90;;;;;;5058157;28;20082;-33
2021/08/27 07:42:46;;;;;;;57.70;35.72;;;19.30;82.60;;;;;;5057740;28;20079;-32
2021/08/27 07:45:14;;;;;;;58.65;36.63;;;19.40;83.00;;;;;;5056905;28;20032;-35
2021/08/27 07:47:40;;;;;;;37.92;26.73;;;19.40;83.50;;;;;;5057958;28;20033;-34
2021/08/27 07:50:07;;;;;;;51.75;32.13;;;19.40;83.90;;;;;;5057837;28;20029;-33
2021/08/27 07:52:33;;;;;;;46.05;31.25;;;19.50;83.40;;;;;;5057592;28;20090;-35
2021/08/27 07:54:58;;;;;;;51.17;33.03;;;19.50;82.90;;;;;;5058031;28;20037;-35
2021/08/27 07:57:24;;;;;;;46.70;32.38;;;19.60;82.90;;;;;;5057683;28;20041;-35
2021/08/27 07:59:50;;;;;;;55.03;34.22;;;19.70;82.60;;;;;;5057654;28;20341;-35
2021/08/27 08:02:16;;;;;;;49.80;32.72;;;19.70;82.50;;;;;;5057587;28;20083;-35
2021/08/27 08:04:44;;;;;;;42.67;28.50;;;19.80;82.40;;;;;;5057296;28;20056;-34
2021/08/27 08:07:10;;;;;;;46.83;30.90;;;19.80;82.00;;;;;;5057018;28;20048;-35
2021/08/27 08:09:35;;;;;;;43.85;28.67;;;19.80;81.60;;;;;;5057034;28;20319;-35
2021/08/27 08:12:01;;;;;;;41.60;26.70;;;19.80;81.10;;;;;;5056985;28;20373;-43
2021/08/27 08:14:27;;;;;;;40.67;28.77;;;19.90;81.00;;;;;;5057105;28;20033;-34
2021/08/27 08:16:52;;;;;;;43.83;30.25;;;19.90;80.90;;;;;;5056898;28;20352;-34
2021/08/27 08:19:18;;;;;;;42.10;29.42;;;19.90;80.90;;;;;;5057080;28;20025;-35
2021/08/27 08:21:44;;;;;;;42.88;29.40;;;19.90;80.90;;;;;;5057657;28;20028;-34
2021/08/27 08:24:10;;;;;;;39.22;27.75;;;19.90;80.70;;;;;;5057264;28;20397;-34
2021/08/27 08:26:35;;;;;;;39.53;27.20;;;20.00;80.70;;;;;;5057386;28;20033;-43
2021/08/27 08:29:02;;;;;;;42.95;27.10;;;20.00;80.70;;;;;;5056998;28;20064;-42
2021/08/27 08:31:29;;;;;;;35.85;25.95;;;20.00;80.60;;;;;;5057107;28;20029;-43
2021/08/27 08:33:55;;;;;;;34.95;26.02;;;20.10;80.20;;;;;;5057174;28;20044;-35
2021/08/27 08:36:22;;;;;;;35.05;25.63;;;20.20;80.90;;;;;;5056649;28;20318;-34
2021/08/27 08:38:48;;;;;;;34.03;25.13;;;20.30;80.90;;;;;;5056795;28;20046;-43
2021/08/27 08:41:15;;;;;;;31.60;23.88;;;20.30;80.30;;;;;;5056859;28;20029;-43
2021/08/27 08:43:46;;;;;;;31.83;24.05;;;20.40;79.40;;;;;;5056607;28;20025;-43
2021/08/27 08:46:13;;;;;;;30.27;23.45;;;20.40;79.20;;;;;;5056868;28;20356;-43
2021/08/27 08:48:43;;;;;;;37.10;24.65;;;20.50;79.30;;;;;;5056541;28;20040;-34
2021/08/27 08:51:10;;;;;;;33.65;25.48;;;20.50;79.00;;;;;;5056490;28;20032;-35
2021/08/27 08:53:40;;;;;;;33.05;24.65;;;20.50;78.70;;;;;;5056412;28;20416;-43
2021/08/27 08:56:09;;;;;;;29.60;23.45;;;20.50;78.20;;;;;;5056653;28;20037;-35
2021/08/27 08:58:34;;;;;;;29.02;22.63;;;20.50;78.30;;;;;;5056455;28;20380;-43
2021/08/27 09:01:00;;;;;;;36.03;25.50;;;20.50;78.20;;;;;;5056790;28;20105;-36
2021/08/27 09:03:26;;;;;;;28.67;22.40;;;20.50;78.20;;;;;;5056120;28;20345;-43
2021/08/27 09:06:14;;;;;;;28.83;23.02;;;20.50;78.00;;;;;;5055957;28;20021;-43
2021/08/27 09:08:45;;;;;;;27.02;21.67;;;20.50;77.80;;;;;;5056254;28;20040;-43
2021/08/27 09:11:21;;;;;;;38.13;24.48;;;20.50;78.40;;;;;;5055603;28;20069;-43
2021/08/27 09:14:02;;;;;;;31.63;23.92;;;20.60;78.70;;;;;;5056050;28;20455;-43
2021/08/27 09:16:31;;;;;;;25.48;21.63;;;20.80;78.80;;;;;;5055601;28;20056;-43
2021/08/27 09:18:58;;;;;;;25.83;20.92;;;20.90;78.90;;;;;;5056170;28;20302;-37
2021/08/27 09:21:36;;;;;;;27.05;21.63;;;21.10;78.10;;;;;;5056128;28;20029;-37
2021/08/27 09:24:18;;;;;;;28.60;21.10;;;21.30;77.60;;;;;;5056055;28;20029;-35
2021/08/27 09:26:49;;;;;;;22.60;18.73;;;21.40;75.90;;;;;;5056015;28;20037;-36
2021/08/27 09:29:53;;;;;;;23.65;18.98;;;21.50;76.00;;;;;;5055832;28;20048;-43
2021/08/27 09:32:28;;;;;;;24.73;20.05;;;21.60;75.50;;;;;;5053635;28;20033;-42
2021/08/27 09:35:08;;;;;;;28.40;20.38;;;21.70;74.40;;;;;;5053670;28;20095;-43
2021/08/27 09:37:46;;;;;;;22.00;17.92;;;21.80;74.90;;;;;;5054670;28;20060;-36
2021/08/27 09:40:17;;;;;;;22.33;18.55;;;21.80;74.40;;;;;;5056140;28;20047;-43
2021/08/27 09:42:51;;;;;;;24.40;20.35;;;21.80;74.10;;;;;;5056005;28;20024;-42
2021/08/27 09:45:32;;;;;;;25.60;21.00;;;21.90;74.00;;;;;;5055773;28;20108;-35
2021/08/27 09:48:00;;;;;;;24.65;19.40;;;21.90;72.90;;;;;;5053599;28;20029;-36
2021/08/27 09:50:30;;;;;;;22.60;19.33;;;21.90;73.20;;;;;;5055814;28;20064;-43
2021/08/27 09:52:57;;;;;;;;;;;21.90;72.80;;;;;;5055982;28;20052;-35
2021/08/27 09:55:24;;;;;;;24.88;19.63;;;21.90;73.50;;;;;;5055823;28;20347;-35
2021/08/27 09:57:50;;;;;;;20.67;18.10;;;22.00;73.10;;;;;;5055509;28;20041;-35
2021/08/27 10:00:21;;;;;;;19.83;17.73;;;22.00;72.40;;;;;;5055491;28;20036;-33
2021/08/27 10:02:47;;;;;;;;;;;22.10;72.60;;;;;;5055619;28;20052;-36
2021/08/27 10:05:14;;;;;;;23.33;17.45;;;22.10;73.20;;;;;;5055760;28;19917;-34
2021/08/27 10:07:41;;;;;;;20.27;17.15;;;22.20;72.10;;;;;;5055192;28;20041;-33
2021/08/27 10:10:13;;;;;;;19.65;17.55;;;22.30;71.80;;;;;;5055339;28;20029;-35
2021/08/27 10:12:40;;;;;;;20.42;17.40;;;22.30;70.90;;;;;;5054907;28;20033;-35
2021/08/27 10:15:08;;;;;;;18.67;14.52;;;22.30;71.00;;;;;;5055674;28;20318;-34
2021/08/27 10:17:35;;;;;;;24.13;17.55;;;22.30;71.00;;;;;;5054830;28;20060;-33
2021/08/27 10:20:07;;;;;;;19.67;15.68;;;22.30;70.90;;;;;;5055345;28;20052;-36
2021/08/27 10:22:40;;;;;;;22.33;14.35;;;22.40;70.80;;;;;;5054939;28;20083;-35
2021/08/27 10:25:08;;;;;;;17.65;14.82;;;22.40;70.10;;;;;;5055205;28;20067;-35
2021/08/27 10:27:35;;;;;;;16.48;13.63;;;22.40;70.00;;;;;;5054703;28;20037;-35
2021/08/27 10:30:02;;;;;;;17.85;14.63;;;22.40;70.20;;;;;;5055344;28;20036;-35
2021/08/27 10:32:49;;;;;;;16.17;14.48;;;22.40;69.60;;;;;;5054213;28;20108;-35
2021/08/27 10:35:41;;;;;;;17.42;14.73;;;22.40;69.60;;;;;;5055228;28;20424;-36
2021/08/27 10:38:07;;;;;;;18.23;12.85;;;22.40;70.40;;;;;;5054597;28;20075;-36
2021/08/27 10:40:37;;;;;;;19.08;13.38;;;22.50;69.70;;;;;;5054827;28;20079;-35
2021/08/27 10:43:03;;;;;;;13.95;12.50;;;22.50;68.70;;;;;;5054730;28;20040;-36
2021/08/27 10:45:32;;;;;;;14.18;12.73;;;22.50;69.20;;;;;;5055037;28;20037;-35
2021/08/27 10:48:17;;;;;;;15.57;12.50;;;22.60;68.80;;;;;;5055214;28;20417;-36
2021/08/27 10:50:47;;;;;;;13.20;11.80;;;22.60;68.70;;;;;;5053453;28;20029;-35
2021/08/27 10:53:32;;;;;;;13.95;12.45;;;22.60;68.20;;;;;;5054709;28;20028;-34
2021/08/27 10:56:07;;;;;;;16.95;12.43;;;22.70;68.00;;;;;;5054949;28;20313;-33
2021/08/27 10:58:44;;;;;;;17.00;12.30;;;22.70;68.90;;;;;;5056410;28;20084;-34
2021/08/27 11:01:29;;;;;;;17.17;11.55;;;22.80;68.90;;;;;;5058783;28;20243;-35
2021/08/27 11:04:01;;;;;;;14.20;12.68;;;22.90;68.80;;;;;;5058569;28;20029;-35
2021/08/27 11:06:26;;;;;;;14.25;12.75;;;23.10;68.10;;;;;;5058637;28;20057;-33
2021/08/27 11:08:52;;;;;;;15.63;12.15;;;23.20;67.10;;;;;;5058526;28;20068;-33
2021/08/27 11:11:18;;;;;;;14.77;13.27;;;23.40;66.90;;;;;;5058356;28;20039;-34
2021/08/27 11:13:44;;;;;;;15.35;12.70;;;23.50;66.30;;;;;;5058441;28;20029;-33
2021/08/27 11:16:19;;;;;;;17.42;13.25;;;23.50;66.20;;;;;;5058137;28;20443;-33
2021/08/27 11:18:45;;;;;;;14.57;13.07;;;23.60;65.60;;;;;;5058474;28;20036;-33
2021/08/27 11:21:32;;;;;;;15.02;13.43;;;23.60;65.50;;;;;;5058599;28;20029;-43
2021/08/27 11:24:18;;;;;;;17.00;12.43;;;23.60;64.60;;;;;;5058344;28;20074;-38
2021/08/27 11:27:08;;;;;;;14.70;12.80;;;23.70;65.00;;;;;;5058266;28;20095;-43
2021/08/27 11:29:41;;;;;;;12.68;11.48;;;23.70;64.20;;;;;;5058561;28;20048;-43
2021/08/27 11:32:17;;;;;;;12.35;10.82;;;23.70;63.50;;;;;;5058268;28;20112;-43
2021/08/27 11:35:03;;;;;;;12.23;10.93;;;23.70;63.50;;;;;;5058361;28;20120;-37
2021/08/27 11:37:33;;;;;;;11.10;10.00;;;23.70;63.70;;;;;;5058193;28;20421;-43
2021/08/27 11:40:00;;;;;;;13.05;10.57;;;23.80;64.00;;;;;;5058336;28;20029;-36
2021/08/27 11:42:26;;;;;;;13.30;12.00;;;23.90;63.90;;;;;;5057880;28;20032;-36
2021/08/27 11:45:05;;;;;;;13.85;12.32;;;24.10;63.10;;;;;;5058127;28;20029;-42
2021/08/27 11:47:44;;;;;;;13.70;11.60;;;24.30;63.60;;;;;;5058088;28;20037;-43
2021/08/27 11:50:29;;;;;;;16.65;14.00;;;24.60;63.60;;;;;;5052936;28;20310;-36
2021/08/27 11:52:57;;;;;;;14.27;12.60;;;24.80;62.80;;;;;;5056718;28;20333;-42
2021/08/27 11:55:23;;;;;;;14.57;13.07;;;24.90;63.20;;;;;;5057695;28;20051;-43
2021/08/27 11:58:00;;;;;;;13.35;12.02;;;25.00;62.70;;;;;;5057494;28;20121;-43
2021/08/27 12:00:41;;;;;;;12.93;11.63;;;25.00;62.40;;;;;;5057300;28;20352;-39
2021/08/27 12:03:08;;;;;;;14.30;12.80;;;25.00;62.50;;;;;;5057312;28;20021;-43
2021/08/27 12:05:35;;;;;;;13.32;12.02;;;25.10;62.10;;;;;;5057405;28;20029;-36
2021/08/27 12:08:04;;;;;;;13.95;12.65;;;25.10;62.20;;;;;;5057486;28;20321;-37
2021/08/27 12:10:38;;;;;;;14.98;13.48;;;25.20;62.30;;;;;;5056449;28;20065;-39
2021/08/27 12:13:06;;;;;;;16.90;13.00;;;25.40;61.70;;;;;;5057128;28;20076;-37
2021/08/27 12:15:34;;;;;;;15.45;11.95;;;25.50;61.50;;;;;;5057472;28;20041;-36
2021/08/27 12:18:15;;;;;;;14.02;12.70;;;25.80;61.50;;;;;;5057003;28;20110;-43
2021/08/27 12:20:41;;;;;;;;;;;26.10;61.00;;;;;;5057842;28;20040;-37
2021/08/27 12:23:25;;;;;;;15.48;12.85;;;26.30;61.70;;;;;;5057545;28;19905;-42
2021/08/27 12:26:07;;;;;;;13.38;12.10;;;26.60;59.80;;;;;;5057431;28;20086;-43
2021/08/27 12:28:38;;;;;;;14.25;12.85;;;26.80;58.80;;;;;;5056810;28;20025;-38
2021/08/27 12:31:06;;;;;;;14.38;12.82;;;27.10;57.90;;;;;;5056844;28;20060;-35
2021/08/27 12:33:39;;;;;;;13.40;12.00;;;27.20;58.10;;;;;;5056972;28;20025;-43
2021/08/27 12:36:06;;;;;;;14.63;13.23;;;27.40;57.50;;;;;;5055295;28;20455;-42
2021/08/27 12:38:33;;;;;;;14.02;12.63;;;27.40;56.70;;;;;;5055729;28;20112;-43